createdAt,value
2022-09-18T00:01:50.576Z,93.25
2022-09-18T00:06:53.301Z,92.77
2022-09-18T00:11:56.570Z,93.22
2022-09-18T00:16:59.592Z,94.03
2022-09-18T00:22:02.343Z,94.08
2022-09-18T00:27:05.272Z,93.93
2022-09-18T00:32:07.988Z,94.10
2022-09-18T00:37:11.309Z,94.41
2022-09-18T00:42:14.122Z,94.11
2022-09-18T00:47:29.785Z,94.17
2022-09-18T00:52:58.120Z,94.35
2022-09-18T00:58:03.275Z,94.55
2022-09-18T01:03:06.225Z,94.44
2022-09-18T01:08:23.561Z,94.34
2022-09-18T01:13:55.430Z,94.68
2022-09-18T01:19:39.392Z,94.96
2022-09-18T01:24:50.815Z,94.71
2022-09-18T01:30:02.302Z,95.11
2022-09-18T01:35:36.835Z,95.11
2022-09-18T01:40:46.608Z,94.95
2022-09-18T01:45:55.740Z,95.26
2022-09-18T01:51:17.205Z,95.19
2022-09-18T01:56:25.946Z,94.88
2022-09-18T02:01:31.354Z,94.98
2022-09-18T02:06:45.165Z,95.24
2022-09-18T02:11:54.004Z,94.99
2022-09-18T02:17:06.151Z,95.06
2022-09-18T02:22:12.444Z,95.04
2022-09-18T02:27:16.459Z,94.68
2022-09-18T02:32:19.310Z,94.68
2022-09-18T02:37:50.137Z,94.82
2022-09-18T02:43:14.797Z,94.72
2022-09-18T02:48:25.609Z,94.86
2022-09-18T02:53:30.806Z,94.93
2022-09-18T02:58:38.134Z,94.38
2022-09-18T03:03:41.901Z,94.32
2022-09-18T03:08:44.646Z,94.50
2022-09-18T03:13:47.543Z,94.86
2022-09-18T03:18:50.369Z,94.93
2022-09-18T03:23:53.370Z,94.79
2022-09-18T03:28:56.118Z,94.85
2022-09-18T03:33:58.864Z,94.81
2022-09-18T03:39:01.744Z,94.82
2022-09-18T03:44:05.046Z,94.64
2022-09-18T03:49:07.817Z,94.57
2022-09-18T03:54:10.489Z,94.49
2022-09-18T03:59:13.445Z,94.18
2022-09-18T04:04:16.197Z,94.58
2022-09-18T04:09:18.940Z,94.67
2022-09-18T04:14:25.611Z,94.55
2022-09-18T04:19:32.217Z,94.72
2022-09-18T04:24:36.378Z,94.73
2022-09-18T04:29:39.185Z,94.75
2022-09-18T04:34:43.422Z,95.10
2022-09-18T04:39:47.277Z,94.91
2022-09-18T04:44:50.015Z,95.12
2022-09-18T04:49:53.987Z,95.32
2022-09-18T04:54:57.093Z,95.21
2022-09-18T04:59:59.945Z,95.19
2022-09-18T05:05:02.640Z,94.80
2022-09-18T05:10:11.227Z,94.59
2022-09-18T05:15:14.606Z,94.31
2022-09-18T05:20:17.337Z,94.31
2022-09-18T05:25:23.392Z,94.28
2022-09-18T05:30:27.436Z,93.79
2022-09-18T05:35:32.360Z,93.21
2022-09-18T05:40:37.431Z,93.84
2022-09-18T05:45:40.556Z,94.20
2022-09-18T05:50:43.443Z,93.94
2022-09-18T05:55:46.644Z,93.89
2022-09-18T06:00:52.185Z,93.78
2022-09-18T06:05:55.220Z,93.82
2022-09-18T06:11:01.030Z,93.27
2022-09-18T06:16:04.086Z,92.99
2022-09-18T06:21:07.412Z,92.54
2022-09-18T06:26:14.722Z,92.30
2022-09-18T06:31:18.051Z,92.74
2022-09-18T06:36:20.919Z,92.12
2022-09-18T06:41:24.187Z,91.87
2022-09-18T06:46:27.063Z,91.33
2022-09-18T06:51:30.691Z,91.49
2022-09-18T06:56:33.989Z,91.24
2022-09-18T07:01:36.955Z,91.23
2022-09-18T07:06:39.664Z,90.99
2022-09-18T07:11:42.685Z,90.52
2022-09-18T07:16:45.411Z,90.16
2022-09-18T07:21:48.111Z,89.90
2022-09-18T07:26:50.853Z,89.99
2022-09-18T07:31:53.592Z,89.98
2022-09-18T07:36:56.310Z,90.17
2022-09-18T07:41:59.240Z,89.91
2022-09-18T07:47:03.175Z,89.81
2022-09-18T07:52:06.735Z,89.42
2022-09-18T07:57:10.128Z,89.10
2022-09-18T08:02:13.297Z,88.96
2022-09-18T08:07:16.222Z,88.38
2022-09-18T08:12:19.593Z,87.29
2022-09-18T08:17:23.949Z,87.23
2022-09-18T08:22:27.101Z,86.57
2022-09-18T08:27:29.850Z,85.86
2022-09-18T08:32:36.183Z,86.16
2022-09-18T08:37:48.673Z,85.92
2022-09-18T08:43:03.813Z,86.01
2022-09-18T08:48:14.602Z,86.22
2022-09-18T08:53:30.110Z,85.84
2022-09-18T08:58:45.574Z,85.17
2022-09-18T09:04:00.904Z,85.72
2022-09-18T09:09:30.857Z,85.29
2022-09-18T09:14:57.920Z,85.48
2022-09-18T09:20:21.666Z,85.30
2022-09-18T09:25:47.996Z,85.83
2022-09-18T09:30:55.340Z,85.95
2022-09-18T09:36:09.810Z,85.54
2022-09-18T09:41:25.464Z,85.57
2022-09-18T09:46:50.093Z,86.36
2022-09-18T09:52:03.697Z,85.96
2022-09-18T09:57:23.425Z,85.96
2022-09-18T10:02:30.432Z,86.13
2022-09-18T10:07:43.522Z,86.32
2022-09-18T10:13:00.569Z,85.56
2022-09-18T10:18:12.344Z,85.58
2022-09-18T10:23:41.416Z,85.73
2022-09-18T10:28:44.305Z,85.82
2022-09-18T10:33:53.182Z,85.20
2022-09-18T10:39:00.194Z,85.28
2022-09-18T10:44:24.450Z,84.94
2022-09-18T10:49:41.048Z,84.76
2022-09-18T10:55:00.814Z,85.14
2022-09-18T11:00:24.695Z,85.17
2022-09-18T11:05:33.804Z,84.91
2022-09-18T11:10:38.017Z,85.07
2022-09-18T11:15:53.570Z,84.95
2022-09-18T11:21:03.947Z,85.34
2022-09-18T11:26:26.793Z,85.54
2022-09-18T11:31:39.033Z,85.10
2022-09-18T11:36:49.495Z,85.07
2022-09-18T11:41:54.295Z,85.34
2022-09-18T11:47:29.843Z,85.18
2022-09-18T11:52:40.157Z,85.34
2022-09-18T11:57:48.462Z,84.73
2022-09-18T12:03:01.005Z,83.69
2022-09-18T12:08:50.492Z,83.25
2022-09-18T12:14:17.354Z,82.89
2022-09-18T12:19:49.521Z,82.59
2022-09-18T12:24:52.203Z,82.34
2022-09-18T12:30:08.965Z,81.75
2022-09-18T12:35:37.366Z,81.41
2022-09-18T12:41:16.486Z,81.66
2022-09-18T12:46:26.109Z,82.33
2022-09-18T12:51:35.415Z,81.76
2022-09-18T12:57:06.290Z,80.79
2022-09-18T13:02:36.350Z,80.90
2022-09-18T13:07:48.843Z,79.81
2022-09-18T13:13:09.579Z,80.79
2022-09-18T13:18:39.160Z,80.33
2022-09-18T13:23:42.859Z,80.42
2022-09-18T13:28:45.664Z,80.82
2022-09-18T13:34:06.911Z,80.62
2022-09-18T13:39:25.023Z,79.89
2022-09-18T13:44:34.974Z,79.03
2022-09-18T13:50:17.212Z,78.02
2022-09-18T13:55:20.259Z,77.13
2022-09-18T14:00:24.151Z,76.33
2022-09-18T14:05:31.023Z,75.53
2022-09-18T14:10:54.666Z,75.42
2022-09-18T14:16:13.754Z,74.98
2022-09-18T14:21:21.499Z,75.00
2022-09-18T14:26:38.052Z,75.24
2022-09-18T14:31:52.842Z,74.99
2022-09-18T14:37:27.206Z,75.46
2022-09-18T14:42:38.394Z,75.60
2022-09-18T14:47:44.097Z,75.82
2022-09-18T14:52:47.985Z,76.34
2022-09-18T14:57:55.671Z,76.41
2022-09-18T15:03:02.744Z,76.12
2022-09-18T15:08:14.361Z,76.26
2022-09-18T15:13:18.832Z,75.85
2022-09-18T15:18:25.752Z,75.69
2022-09-18T15:23:38.576Z,76.14
2022-09-18T15:28:44.613Z,76.17
2022-09-18T15:34:00.261Z,76.28
2022-09-18T15:39:06.459Z,76.48
2022-09-18T15:44:34.454Z,76.86
2022-09-18T15:49:37.384Z,76.86
2022-09-18T15:55:18.717Z,77.12
2022-09-18T16:00:29.987Z,77.79
2022-09-18T16:05:37.761Z,78.49
2022-09-18T16:10:44.713Z,79.11
2022-09-18T16:16:08.659Z,79.70
2022-09-18T16:21:11.564Z,80.10
2022-09-18T16:26:19.945Z,80.94
2022-09-18T16:31:26.435Z,81.53
2022-09-18T16:36:40.331Z,82.77
2022-09-18T16:41:43.860Z,84.07
2022-09-18T16:47:07.967Z,85.06
2022-09-18T16:52:12.082Z,85.78
2022-09-18T16:57:20.548Z,86.06
2022-09-18T17:02:26.083Z,85.89
2022-09-18T17:07:30.330Z,86.10
2022-09-18T17:12:33.090Z,86.48
2022-09-18T17:17:36.899Z,86.48
2022-09-18T17:22:39.958Z,86.90
2022-09-18T17:27:44.008Z,87.39
2022-09-18T17:32:48.624Z,87.91
2022-09-18T17:37:51.867Z,88.39
2022-09-18T17:42:55.041Z,88.61
2022-09-18T17:47:58.161Z,88.68
2022-09-18T17:53:01.334Z,88.77
2022-09-18T17:58:04.435Z,88.81
2022-09-18T18:03:07.825Z,89.04
2022-09-18T18:08:10.541Z,89.23
2022-09-18T18:13:18.191Z,89.59
2022-09-18T18:18:21.769Z,89.71
2022-09-18T18:23:25.004Z,90.17
2022-09-18T18:28:32.541Z,90.33
2022-09-18T18:33:37.579Z,90.39
2022-09-18T18:38:43.492Z,90.69
2022-09-18T18:43:46.717Z,91.48
2022-09-18T18:49:00.116Z,91.67
2022-09-18T18:54:05.461Z,91.78
2022-09-18T18:59:12.725Z,91.62
2022-09-18T19:04:21.567Z,91.43
2022-09-18T19:09:27.872Z,91.36
2022-09-18T19:14:33.882Z,91.60
2022-09-18T19:19:36.747Z,91.57
2022-09-18T19:24:40.099Z,91.96
2022-09-18T19:29:43.158Z,92.45
2022-09-18T19:34:46.184Z,92.49
2022-09-18T19:39:50.236Z,92.67
2022-09-18T19:45:01.422Z,92.79
2022-09-18T19:50:06.046Z,92.79
2022-09-18T19:55:16.016Z,92.90
2022-09-18T20:00:19.460Z,92.89
2022-09-18T20:05:22.133Z,93.07
2022-09-18T20:10:24.864Z,93.49
2022-09-18T20:15:27.749Z,93.71
2022-09-18T20:20:31.179Z,93.73
2022-09-18T20:25:34.202Z,93.93
2022-09-18T20:30:38.953Z,94.10
2022-09-18T20:35:41.732Z,94.18
2022-09-18T20:40:45.392Z,94.18
2022-09-18T20:45:58.146Z,94.40
2022-09-18T20:51:09.292Z,94.57
2022-09-18T20:56:15.062Z,94.63
2022-09-18T21:01:20.721Z,94.80
2022-09-18T21:06:26.181Z,94.52
2022-09-18T21:11:31.611Z,94.82
2022-09-18T21:16:39.318Z,95.00
2022-09-18T21:21:42.326Z,94.71
2022-09-18T21:26:48.009Z,94.95
2022-09-18T21:31:54.226Z,94.70
2022-09-18T21:37:07.803Z,94.56
2022-09-18T21:42:10.917Z,94.28
2022-09-18T21:47:13.654Z,94.29
2022-09-18T21:52:17.381Z,94.37
2022-09-18T21:57:20.164Z,94.40
2022-09-18T22:02:22.923Z,94.55
2022-09-18T22:07:26.326Z,94.77
2022-09-18T22:12:29.044Z,94.66
2022-09-18T22:17:32.114Z,95.04
2022-09-18T22:22:34.925Z,95.16
2022-09-18T22:27:37.808Z,95.25
2022-09-18T22:32:41.523Z,95.43
2022-09-18T22:37:44.374Z,95.39
2022-09-18T22:42:47.071Z,95.42
2022-09-18T22:47:49.874Z,95.39
2022-09-18T22:52:52.771Z,95.73
2022-09-18T22:57:56.223Z,95.79
2022-09-18T23:02:58.897Z,95.83
2022-09-18T23:08:01.974Z,95.84
2022-09-18T23:13:05.081Z,96.07
2022-09-18T23:18:07.778Z,95.92
2022-09-18T23:23:10.548Z,96.35
2022-09-18T23:28:13.494Z,96.51
2022-09-18T23:33:17.044Z,96.59
2022-09-18T23:38:19.738Z,96.53
2022-09-18T23:43:22.488Z,96.41
2022-09-18T23:48:26.583Z,96.45
2022-09-18T23:53:36.238Z,96.10
2022-09-18T23:58:42.122Z,95.85
